createdAt,value
2023-04-06T00:02:29.130Z,64.63
2023-04-06T00:05:01.856Z,64.75
2023-04-06T00:07:35.456Z,65.53
2023-04-06T00:10:09.779Z,65.79
2023-04-06T00:12:42.110Z,65.47
2023-04-06T00:15:15.027Z,65.36
2023-04-06T00:17:47.255Z,65.21
2023-04-06T00:20:20.571Z,64.87
2023-04-06T00:22:52.803Z,64.74
2023-04-06T00:25:25.032Z,64.92
2023-04-06T00:27:57.229Z,64.62
2023-04-06T00:30:29.732Z,65.06
2023-04-06T00:33:02.099Z,64.92
2023-04-06T00:35:34.465Z,65.50
2023-04-06T00:38:06.675Z,66.46
2023-04-06T00:40:40.694Z,66.30
2023-04-06T00:43:13.463Z,66.19
2023-04-06T00:45:46.311Z,65.02
2023-04-06T00:48:18.862Z,65.98
2023-04-06T00:50:51.358Z,66.25
2023-04-06T00:53:23.840Z,66.65
2023-04-06T00:55:56.590Z,66.72
2023-04-06T00:58:29.353Z,66.18
2023-04-06T01:01:07.597Z,65.94
2023-04-06T01:03:43.260Z,66.07
2023-04-06T01:06:17.189Z,66.41
2023-04-06T01:08:50.652Z,66.22
2023-04-06T01:11:25.735Z,66.34
2023-04-06T01:13:59.238Z,66.72
2023-04-06T01:16:41.552Z,67.31
2023-04-06T01:19:16.712Z,66.48
2023-04-06T01:21:54.378Z,65.88
2023-04-06T01:24:35.804Z,65.93
2023-04-06T01:27:31.397Z,65.73
2023-04-06T01:30:22.841Z,66.01
2023-04-06T01:33:02.417Z,66.33
2023-04-06T01:36:01.393Z,66.69
2023-04-06T01:38:34.052Z,66.80
2023-04-06T01:41:06.337Z,67.60
2023-04-06T01:43:49.342Z,66.70
2023-04-06T01:46:21.838Z,66.30
2023-04-06T01:48:54.882Z,66.23
2023-04-06T01:51:34.543Z,66.71
2023-04-06T01:54:08.592Z,67.33
2023-04-06T01:57:04.172Z,67.35
2023-04-06T01:59:39.715Z,66.95
2023-04-06T02:02:16.563Z,66.55
2023-04-06T02:04:57.066Z,66.74
2023-04-06T02:07:29.372Z,66.75
2023-04-06T02:10:01.947Z,66.80
2023-04-06T02:12:40.967Z,67.16
2023-04-06T02:15:15.651Z,67.82
2023-04-06T02:17:48.253Z,67.66
2023-04-06T02:20:20.659Z,67.57
2023-04-06T02:22:52.802Z,67.42
2023-04-06T02:25:25.609Z,66.87
2023-04-06T02:27:57.848Z,66.94
2023-04-06T02:30:30.217Z,66.22
2023-04-06T02:33:02.947Z,66.17
2023-04-06T02:35:37.465Z,66.64
2023-04-06T02:38:09.890Z,67.16
2023-04-06T02:40:42.153Z,67.10
2023-04-06T02:43:26.719Z,66.71
2023-04-06T02:46:08.868Z,66.61
2023-04-06T02:48:43.489Z,66.42
2023-04-06T02:51:15.925Z,66.45
2023-04-06T02:53:49.979Z,66.60
2023-04-06T02:56:22.760Z,67.14
2023-04-06T02:58:56.253Z,66.84
2023-04-06T03:01:30.502Z,67.52
2023-04-06T03:04:04.934Z,67.28
2023-04-06T03:06:37.606Z,68.53
2023-04-06T03:09:16.977Z,74.36
2023-04-06T03:11:49.763Z,71.20
2023-04-06T03:14:27.074Z,69.94
2023-04-06T03:16:59.575Z,70.14
2023-04-06T03:19:32.122Z,70.19
2023-04-06T03:22:05.527Z,69.69
2023-04-06T03:24:37.799Z,69.76
2023-04-06T03:27:12.316Z,69.55
2023-04-06T03:29:46.376Z,69.07
2023-04-06T03:32:20.128Z,68.89
2023-04-06T03:34:52.565Z,70.34
2023-04-06T03:37:24.903Z,69.66
2023-04-06T03:39:58.985Z,70.28
2023-04-06T03:42:31.985Z,70.25
2023-04-06T03:45:10.156Z,70.12
2023-04-06T03:47:44.180Z,70.53
2023-04-06T03:50:16.682Z,73.31
2023-04-06T03:52:49.941Z,72.40
2023-04-06T03:55:22.326Z,71.32
2023-04-06T03:57:54.552Z,70.37
2023-04-06T04:00:26.989Z,70.02
2023-04-06T04:03:02.998Z,70.03
2023-04-06T04:05:35.415Z,69.37
2023-04-06T04:08:08.025Z,69.13
2023-04-06T04:10:40.195Z,69.51
2023-04-06T04:13:12.378Z,69.48
2023-04-06T04:15:45.334Z,69.82
2023-04-06T04:18:17.693Z,70.61
2023-04-06T04:20:49.989Z,69.54
2023-04-06T04:23:22.412Z,68.76
2023-04-06T04:25:54.734Z,68.33
2023-04-06T04:28:27.107Z,67.99
2023-04-06T04:31:00.494Z,68.96
2023-04-06T04:33:33.458Z,68.34
2023-04-06T04:36:07.897Z,67.91
2023-04-06T04:38:44.357Z,67.80
2023-04-06T04:41:16.643Z,69.81
2023-04-06T04:43:49.362Z,68.89
2023-04-06T04:46:22.552Z,68.47
2023-04-06T04:48:55.074Z,68.59
2023-04-06T04:51:27.482Z,69.62
2023-04-06T04:54:28.744Z,69.55
2023-04-06T04:57:01.500Z,68.35
2023-04-06T04:59:47.112Z,68.42
2023-04-06T05:02:23.673Z,68.57
2023-04-06T05:05:06.987Z,68.55
2023-04-06T05:07:39.212Z,68.74
2023-04-06T05:10:13.688Z,69.06
2023-04-06T05:12:54.514Z,69.02
2023-04-06T05:15:26.721Z,68.71
2023-04-06T05:18:01.518Z,68.30
2023-04-06T05:20:38.275Z,69.13
2023-04-06T05:23:10.839Z,68.63
2023-04-06T05:25:43.213Z,68.96
2023-04-06T05:28:24.567Z,69.37
2023-04-06T05:30:58.220Z,68.94
2023-04-06T05:33:31.190Z,68.52
2023-04-06T05:36:15.310Z,68.39
2023-04-06T05:38:51.423Z,68.51
2023-04-06T05:41:34.313Z,68.58
2023-04-06T05:44:06.729Z,70.13
2023-04-06T05:46:41.019Z,71.13
2023-04-06T05:49:13.851Z,73.32
2023-04-06T05:51:46.100Z,71.93
2023-04-06T05:54:18.723Z,71.27
2023-04-06T05:56:51.132Z,70.67
2023-04-06T05:59:23.600Z,70.43
2023-04-06T06:01:56.525Z,70.98
2023-04-06T06:04:29.192Z,70.20
2023-04-06T06:07:02.570Z,72.38
2023-04-06T06:09:44.223Z,72.13
2023-04-06T06:12:27.340Z,71.58
2023-04-06T06:15:00.091Z,70.77
2023-04-06T06:17:33.050Z,70.11
2023-04-06T06:20:06.703Z,69.30
2023-04-06T06:22:39.023Z,69.27
2023-04-06T06:25:12.607Z,68.85
2023-04-06T06:27:44.943Z,68.86
2023-04-06T06:30:18.968Z,68.86
2023-04-06T06:32:53.759Z,68.95
2023-04-06T06:35:26.217Z,68.57
2023-04-06T06:37:58.440Z,68.62
2023-04-06T06:40:31.983Z,68.07
2023-04-06T06:43:04.558Z,68.01
2023-04-06T06:45:49.308Z,68.68
2023-04-06T06:48:21.666Z,67.92
2023-04-06T06:50:54.124Z,67.72
2023-04-06T06:53:26.988Z,67.72
2023-04-06T06:55:59.352Z,67.45
2023-04-06T06:58:32.718Z,67.57
2023-04-06T07:01:06.369Z,67.90
2023-04-06T07:03:39.788Z,67.53
2023-04-06T07:06:12.582Z,67.33
2023-04-06T07:08:46.474Z,67.62
2023-04-06T07:11:18.999Z,66.60
2023-04-06T07:13:51.211Z,66.27
2023-04-06T07:16:24.306Z,66.21
2023-04-06T07:18:56.826Z,66.11
2023-04-06T07:21:29.400Z,66.15
2023-04-06T07:24:01.770Z,65.35
2023-04-06T07:26:34.123Z,64.95
2023-04-06T07:29:06.360Z,64.94
2023-04-06T07:31:39.013Z,64.35
2023-04-06T07:34:11.529Z,63.24
2023-04-06T07:36:46.105Z,63.50
2023-04-06T07:39:19.236Z,63.06
2023-04-06T07:41:52.032Z,62.68
2023-04-06T07:44:24.412Z,62.07
2023-04-06T07:46:56.585Z,61.60
2023-04-06T07:49:29.176Z,61.23
2023-04-06T07:52:02.056Z,61.06
2023-04-06T07:54:34.406Z,60.87
2023-04-06T07:57:06.901Z,60.02
2023-04-06T07:59:39.316Z,59.55
2023-04-06T08:02:11.766Z,58.98
2023-04-06T08:04:45.719Z,57.97
2023-04-06T08:07:18.261Z,56.92
2023-04-06T08:09:51.526Z,56.59
2023-04-06T08:12:24.019Z,55.42
2023-04-06T08:14:57.940Z,56.03
2023-04-06T08:17:31.786Z,55.25
2023-04-06T08:20:05.416Z,53.95
2023-04-06T08:22:37.721Z,54.88
2023-04-06T08:25:10.988Z,54.49
2023-04-06T08:27:43.358Z,54.01
2023-04-06T08:30:16.893Z,52.87
2023-04-06T08:32:49.146Z,52.25
2023-04-06T08:35:21.732Z,52.63
2023-04-06T08:37:54.043Z,50.70
2023-04-06T08:40:26.553Z,51.15
2023-04-06T08:43:03.234Z,51.70
2023-04-06T08:45:35.695Z,51.62
2023-04-06T08:48:09.407Z,51.60
2023-04-06T08:50:42.295Z,49.61
2023-04-06T08:53:16.158Z,50.45
2023-04-06T08:55:49.290Z,50.15
2023-04-06T08:58:35.279Z,49.71
2023-04-06T09:01:15.131Z,48.76
2023-04-06T09:03:49.238Z,48.74
2023-04-06T09:06:22.011Z,48.52
2023-04-06T09:08:54.260Z,48.30
2023-04-06T09:11:26.763Z,47.35
2023-04-06T09:13:59.923Z,46.88
2023-04-06T09:16:43.717Z,46.48
2023-04-06T09:19:16.489Z,46.05
2023-04-06T09:21:48.770Z,45.36
2023-04-06T09:24:26.587Z,46.55
2023-04-06T09:26:58.794Z,45.94
2023-04-06T09:29:31.016Z,46.19
2023-04-06T09:32:08.936Z,44.83
2023-04-06T09:34:42.487Z,43.90
2023-04-06T09:37:19.412Z,43.00
2023-04-06T09:39:53.336Z,44.23
2023-04-06T09:42:33.693Z,44.15
2023-04-06T09:45:08.608Z,43.53
2023-04-06T09:47:46.520Z,42.45
2023-04-06T09:50:21.252Z,43.10
2023-04-06T09:52:56.599Z,43.24
2023-04-06T09:55:33.057Z,44.38
2023-04-06T09:58:09.313Z,43.84
2023-04-06T10:00:51.735Z,43.76
2023-04-06T10:03:38.813Z,43.23
2023-04-06T10:06:17.839Z,42.56
2023-04-06T10:08:52.338Z,42.26
2023-04-06T10:11:25.740Z,41.68
2023-04-06T10:13:59.153Z,41.72
2023-04-06T10:16:33.185Z,40.23
2023-04-06T10:19:12.661Z,41.82
2023-04-06T10:21:51.056Z,41.75
2023-04-06T10:24:23.668Z,41.19
2023-04-06T10:27:04.319Z,41.62
2023-04-06T10:29:49.756Z,41.44
2023-04-06T10:32:22.373Z,40.87
2023-04-06T10:34:54.782Z,39.56
2023-04-06T10:37:27.068Z,39.47
2023-04-06T10:39:59.806Z,40.43
2023-04-06T10:42:41.965Z,40.57
2023-04-06T10:45:21.151Z,38.97
2023-04-06T10:47:54.590Z,39.17
2023-04-06T10:50:27.212Z,38.70
2023-04-06T10:53:10.895Z,38.93
2023-04-06T10:55:45.775Z,38.60
2023-04-06T10:58:18.483Z,38.57
2023-04-06T11:00:51.860Z,38.71
2023-04-06T11:03:24.264Z,37.93
2023-04-06T11:05:56.736Z,38.60
2023-04-06T11:08:33.723Z,37.20
2023-04-06T11:11:12.010Z,37.62
2023-04-06T11:13:46.931Z,38.71
2023-04-06T11:16:21.023Z,38.42
2023-04-06T11:18:57.249Z,37.16
2023-04-06T11:21:40.691Z,36.08
2023-04-06T11:24:16.397Z,36.61
2023-04-06T11:26:52.481Z,35.41
2023-04-06T11:29:26.743Z,36.55
2023-04-06T11:32:03.285Z,36.95
2023-04-06T11:34:38.388Z,36.88
2023-04-06T11:37:14.054Z,36.18
2023-04-06T11:39:53.627Z,36.28
2023-04-06T11:42:31.153Z,36.12
2023-04-06T11:45:09.702Z,36.50
2023-04-06T11:47:44.011Z,35.76
2023-04-06T11:50:18.038Z,36.49
2023-04-06T11:53:04.231Z,35.58
2023-04-06T11:55:41.832Z,35.18
2023-04-06T11:58:14.491Z,35.41
2023-04-06T12:00:47.986Z,35.52
2023-04-06T12:03:20.964Z,35.30
2023-04-06T12:05:53.523Z,35.33
2023-04-06T12:08:29.235Z,35.01
2023-04-06T12:11:01.788Z,35.90
2023-04-06T12:13:34.632Z,35.46
2023-04-06T12:16:08.008Z,36.04
2023-04-06T12:18:40.692Z,36.16
2023-04-06T12:21:13.518Z,35.60
2023-04-06T12:23:46.508Z,35.62
2023-04-06T12:26:18.718Z,36.05
2023-04-06T12:28:52.184Z,35.65
2023-04-06T12:31:26.712Z,35.76
2023-04-06T12:33:58.987Z,35.74
2023-04-06T12:36:32.566Z,35.92
2023-04-06T12:39:05.442Z,36.46
2023-04-06T12:41:38.285Z,36.76
2023-04-06T12:44:10.759Z,36.71
2023-04-06T12:46:44.552Z,37.22
2023-04-06T12:49:19.747Z,37.15
2023-04-06T12:51:52.185Z,37.65
2023-04-06T12:54:24.532Z,37.81
2023-04-06T12:56:57.754Z,38.21
2023-04-06T12:59:35.710Z,38.50
2023-04-06T13:02:09.016Z,38.47
2023-04-06T13:04:41.531Z,38.59
2023-04-06T13:07:13.873Z,38.35
2023-04-06T13:09:49.264Z,39.10
2023-04-06T13:12:23.554Z,38.91
2023-04-06T13:14:55.798Z,39.18
2023-04-06T13:17:29.594Z,39.57
2023-04-06T13:20:02.364Z,39.77
2023-04-06T13:22:34.918Z,40.18
2023-04-06T13:25:08.336Z,40.37
2023-04-06T13:27:40.750Z,40.40
2023-04-06T13:30:16.515Z,40.53
2023-04-06T13:32:50.663Z,40.60
2023-04-06T13:35:23.519Z,40.37
2023-04-06T13:37:58.093Z,40.71
2023-04-06T13:40:30.556Z,41.05
2023-04-06T13:43:03.084Z,41.02
2023-04-06T13:45:35.806Z,40.99
2023-04-06T13:48:08.734Z,41.47
2023-04-06T13:50:41.948Z,41.81
2023-04-06T13:53:14.465Z,41.66
2023-04-06T13:55:54.426Z,41.95
2023-04-06T13:58:27.082Z,42.19
2023-04-06T14:01:03.832Z,42.06
2023-04-06T14:03:36.286Z,42.39
2023-04-06T14:06:29.806Z,42.18
2023-04-06T14:09:03.988Z,42.22
2023-04-06T14:11:36.471Z,42.49
2023-04-06T14:14:08.787Z,42.28
2023-04-06T14:16:41.217Z,42.44
2023-04-06T14:19:14.162Z,42.82
2023-04-06T14:21:46.965Z,42.85
2023-04-06T14:24:20.164Z,42.72
2023-04-06T14:26:52.745Z,43.05
2023-04-06T14:29:25.478Z,42.84
2023-04-06T14:32:01.238Z,42.78
2023-04-06T14:34:33.482Z,42.90
2023-04-06T14:37:05.958Z,42.96
2023-04-06T14:39:38.370Z,43.03
2023-04-06T14:42:10.801Z,43.09
2023-04-06T14:44:44.201Z,43.40
2023-04-06T14:47:21.388Z,43.14
2023-04-06T14:49:55.613Z,43.09
2023-04-06T14:52:29.981Z,43.20
2023-04-06T14:55:03.543Z,43.68
2023-04-06T14:57:36.040Z,43.96
2023-04-06T15:00:10.669Z,43.93
2023-04-06T15:02:44.656Z,43.71
2023-04-06T15:05:17.291Z,44.06
2023-04-06T15:07:49.509Z,44.40
2023-04-06T15:10:22.564Z,44.26
2023-04-06T15:12:56.533Z,44.18
2023-04-06T15:15:31.158Z,44.45
2023-04-06T15:18:06.484Z,44.64
2023-04-06T15:20:42.135Z,44.08
2023-04-06T15:23:17.111Z,44.53
2023-04-06T15:25:51.978Z,44.67
2023-04-06T15:28:26.746Z,45.09
2023-04-06T15:31:04.507Z,44.79
2023-04-06T15:33:39.724Z,45.20
2023-04-06T15:36:27.684Z,44.83
2023-04-06T15:39:02.870Z,45.14
2023-04-06T15:41:38.335Z,45.52
2023-04-06T15:44:17.820Z,45.22
2023-04-06T15:46:53.169Z,45.64
2023-04-06T15:49:27.082Z,45.89
2023-04-06T15:52:00.163Z,46.08
2023-04-06T15:54:34.230Z,46.19
2023-04-06T15:57:08.446Z,46.24
2023-04-06T15:59:41.370Z,45.94
2023-04-06T16:02:13.935Z,45.95
2023-04-06T16:04:46.625Z,45.66
2023-04-06T16:07:19.386Z,45.64
2023-04-06T16:09:52.287Z,46.14
2023-04-06T16:12:26.669Z,46.10
2023-04-06T16:15:00.262Z,45.90
2023-04-06T16:17:32.649Z,46.07
2023-04-06T16:20:06.104Z,46.24
2023-04-06T16:22:39.011Z,46.16
2023-04-06T16:25:12.934Z,46.43
2023-04-06T16:27:44.981Z,46.37
2023-04-06T16:30:17.604Z,46.57
2023-04-06T16:32:51.972Z,46.54
2023-04-06T16:35:26.300Z,46.49
2023-04-06T16:37:58.645Z,46.68
2023-04-06T16:40:31.356Z,46.88
2023-04-06T16:43:04.255Z,47.04
2023-04-06T16:45:36.572Z,46.64
2023-04-06T16:48:09.269Z,46.86
2023-04-06T16:50:41.580Z,47.21
2023-04-06T16:53:13.981Z,47.12
2023-04-06T16:55:46.461Z,47.22
2023-04-06T16:58:18.846Z,47.12
2023-04-06T17:00:51.366Z,47.20
2023-04-06T17:03:23.529Z,47.63
2023-04-06T17:05:56.592Z,47.46
2023-04-06T17:08:29.149Z,47.45
2023-04-06T17:11:04.600Z,47.72
2023-04-06T17:13:37.682Z,48.09
2023-04-06T17:16:10.593Z,48.09
2023-04-06T17:18:42.931Z,47.98
2023-04-06T17:21:17.226Z,48.19
2023-04-06T17:23:50.211Z,48.37
2023-04-06T17:26:22.992Z,48.58
2023-04-06T17:28:55.606Z,48.60
2023-04-06T17:31:28.484Z,48.93
2023-04-06T17:34:01.010Z,48.71
2023-04-06T17:36:34.197Z,48.93
2023-04-06T17:39:06.766Z,48.75
2023-04-06T17:41:39.553Z,48.93
2023-04-06T17:44:11.731Z,48.82
2023-04-06T17:46:44.400Z,48.85
2023-04-06T17:49:16.808Z,49.18
2023-04-06T17:51:49.859Z,49.68
2023-04-06T17:54:22.307Z,50.33
2023-04-06T17:56:55.022Z,50.54
2023-04-06T17:59:27.717Z,51.03
2023-04-06T18:02:00.872Z,51.44
2023-04-06T18:04:34.029Z,51.50
2023-04-06T18:07:06.773Z,51.78
2023-04-06T18:09:39.858Z,52.33
2023-04-06T18:12:12.419Z,52.89
2023-04-06T18:14:45.904Z,53.27
2023-04-06T18:17:19.611Z,53.62
2023-04-06T18:19:52.214Z,53.58
2023-04-06T18:22:25.419Z,54.48
2023-04-06T18:24:59.621Z,54.36
2023-04-06T18:27:32.405Z,54.50
2023-04-06T18:30:05.297Z,54.91
2023-04-06T18:32:38.030Z,55.31
2023-04-06T18:35:12.593Z,55.13
2023-04-06T18:37:44.946Z,56.86
2023-04-06T18:40:34.083Z,57.93
2023-04-06T18:43:08.620Z,57.98
2023-04-06T18:45:43.215Z,58.33
2023-04-06T18:48:16.286Z,59.48
2023-04-06T18:50:57.871Z,59.17
2023-04-06T18:53:30.580Z,59.62
2023-04-06T18:56:04.710Z,60.04
2023-04-06T18:58:37.177Z,59.59
2023-04-06T19:01:09.869Z,59.86
2023-04-06T19:03:43.634Z,60.17
2023-04-06T19:06:21.160Z,60.07
2023-04-06T19:08:55.389Z,60.42
2023-04-06T19:11:29.987Z,60.72
2023-04-06T19:14:04.338Z,61.31
2023-04-06T19:16:42.341Z,63.29
2023-04-06T19:19:17.135Z,62.60
2023-04-06T19:21:52.297Z,62.54
2023-04-06T19:24:26.811Z,62.63
2023-04-06T19:27:00.901Z,61.67
2023-04-06T19:29:34.430Z,62.07
2023-04-06T19:32:11.027Z,62.32
2023-04-06T19:34:44.052Z,62.65
2023-04-06T19:37:20.143Z,62.67
2023-04-06T19:39:52.893Z,63.12
2023-04-06T19:42:26.012Z,63.14
2023-04-06T19:44:59.436Z,63.11
2023-04-06T19:47:32.691Z,62.85
2023-04-06T19:50:05.485Z,62.99
2023-04-06T19:52:38.556Z,63.03
2023-04-06T19:55:13.047Z,63.34
2023-04-06T19:57:45.486Z,64.52
2023-04-06T20:00:19.247Z,64.28
2023-04-06T20:02:52.064Z,64.63
2023-04-06T20:05:25.529Z,64.14
2023-04-06T20:07:59.035Z,64.03
2023-04-06T20:10:33.063Z,63.79
2023-04-06T20:13:07.264Z,63.94
2023-04-06T20:15:40.671Z,64.05
2023-04-06T20:18:13.537Z,64.70
2023-04-06T20:20:46.355Z,65.43
2023-04-06T20:23:19.151Z,68.14
2023-04-06T20:25:51.535Z,68.10
2023-04-06T20:28:24.325Z,68.71
2023-04-06T20:30:57.061Z,68.89
2023-04-06T20:33:29.238Z,68.06
2023-04-06T20:36:03.148Z,69.31
2023-04-06T20:38:35.871Z,68.89
2023-04-06T20:41:10.447Z,70.32
2023-04-06T20:43:42.715Z,71.79
2023-04-06T20:46:19.754Z,70.89
2023-04-06T20:48:53.532Z,70.33
2023-04-06T20:51:26.168Z,70.89
2023-04-06T20:54:01.220Z,70.42
2023-04-06T20:56:33.638Z,69.51
2023-04-06T20:59:06.334Z,68.09
2023-04-06T21:01:38.653Z,69.58
2023-04-06T21:04:11.395Z,69.88
2023-04-06T21:06:43.753Z,69.51
2023-04-06T21:09:16.072Z,71.55
2023-04-06T21:11:48.354Z,69.23
2023-04-06T21:14:21.225Z,68.87
2023-04-06T21:16:56.057Z,69.48
2023-04-06T21:19:28.944Z,68.51
2023-04-06T21:22:01.270Z,70.63
2023-04-06T21:24:33.427Z,72.89
2023-04-06T21:27:05.913Z,73.16
2023-04-06T21:29:38.134Z,71.83
2023-04-06T21:32:10.294Z,69.85
2023-04-06T21:34:46.663Z,70.14
2023-04-06T21:37:19.815Z,70.67
2023-04-06T21:39:52.448Z,72.40
2023-04-06T21:42:25.022Z,75.07
2023-04-06T21:44:59.010Z,74.81
2023-04-06T21:47:32.137Z,75.36
2023-04-06T21:50:05.090Z,75.10
2023-04-06T21:52:37.359Z,73.79
2023-04-06T21:55:11.168Z,72.67
2023-04-06T21:57:44.573Z,72.76
2023-04-06T22:00:20.176Z,74.82
2023-04-06T22:02:52.655Z,72.11
2023-04-06T22:05:25.186Z,72.66
2023-04-06T22:07:57.582Z,71.07
2023-04-06T22:10:29.813Z,71.74
2023-04-06T22:13:02.081Z,72.49
2023-04-06T22:15:34.268Z,72.17
2023-04-06T22:18:06.624Z,72.13
2023-04-06T22:20:38.805Z,72.97
2023-04-06T22:23:11.165Z,71.99
2023-04-06T22:25:43.328Z,72.12
2023-04-06T22:28:15.554Z,72.16
2023-04-06T22:30:47.671Z,72.52
2023-04-06T22:33:19.975Z,74.69
2023-04-06T22:35:52.260Z,74.63
2023-04-06T22:38:24.414Z,73.28
2023-04-06T22:40:56.670Z,72.73
2023-04-06T22:43:28.820Z,72.91
2023-04-06T22:46:00.931Z,72.77
2023-04-06T22:48:33.131Z,72.78
2023-04-06T22:51:05.484Z,72.71
2023-04-06T22:53:37.605Z,72.89
2023-04-06T22:56:09.870Z,73.53
2023-04-06T22:58:42.092Z,72.72
2023-04-06T23:01:14.912Z,72.64
2023-04-06T23:03:48.225Z,73.96
2023-04-06T23:06:20.412Z,75.22
2023-04-06T23:08:52.499Z,73.70
2023-04-06T23:11:24.738Z,72.59
2023-04-06T23:13:56.920Z,73.01
2023-04-06T23:16:29.590Z,73.55
2023-04-06T23:19:01.706Z,74.49
2023-04-06T23:21:33.921Z,73.89
2023-04-06T23:24:06.500Z,73.73
2023-04-06T23:26:38.601Z,73.91
2023-04-06T23:29:10.764Z,73.76
2023-04-06T23:31:43.017Z,73.74
2023-04-06T23:34:15.276Z,73.56
2023-04-06T23:36:47.578Z,73.31
2023-04-06T23:39:19.816Z,73.98
2023-04-06T23:41:52.019Z,74.26
2023-04-06T23:44:24.189Z,74.15
2023-04-06T23:46:56.456Z,73.75
2023-04-06T23:49:28.808Z,74.40
2023-04-06T23:52:00.985Z,74.19
2023-04-06T23:54:33.088Z,74.31
2023-04-06T23:57:05.199Z,75.21
2023-04-06T23:59:37.367Z,75.03
